sensor_id;sensor_type;location;lat;lon;timestamp;pressure;altitude;pressure_sealevel;temperature;humidity
67341;BME280;54227;45.198;5.732;2022-11-15T00:00:05;99062.97;;;23.67;40.36
67341;BME280;54227;45.198;5.732;2022-11-15T00:02:31;99062.97;;;23.67;40.45
67341;BME280;54227;45.198;5.732;2022-11-15T00:04:56;99060.56;;;23.66;40.53
67341;BME280;54227;45.198;5.732;2022-11-15T00:07:21;99062.56;;;23.69;40.42
67341;BME280;54227;45.198;5.732;2022-11-15T00:09:47;99058.16;;;23.68;40.19
67341;BME280;54227;45.198;5.732;2022-11-15T00:12:12;99058.97;;;23.68;40.42
67341;BME280;54227;45.198;5.732;2022-11-15T00:14:38;99058.16;;;23.68;40.44
67341;BME280;54227;45.198;5.732;2022-11-15T00:17:04;99053.78;;;23.67;40.61
67341;BME280;54227;45.198;5.732;2022-11-15T00:19:29;99053.78;;;23.67;40.49
67341;BME280;54227;45.198;5.732;2022-11-15T00:21:54;99053.00;;;23.66;40.52
67341;BME280;54227;45.198;5.732;2022-11-15T00:24:20;99050.19;;;23.66;40.39
67341;BME280;54227;45.198;5.732;2022-11-15T00:26:45;99055.38;;;23.68;40.50
67341;BME280;54227;45.198;5.732;2022-11-15T00:29:10;99042.22;;;23.65;40.55
67341;BME280;54227;45.198;5.732;2022-11-15T00:31:36;99041.41;;;23.68;40.62
67341;BME280;54227;45.198;5.732;2022-11-15T00:34:01;99037.03;;;23.67;40.58
67341;BME280;54227;45.198;5.732;2022-11-15T00:36:27;99041.00;;;23.69;40.67
67341;BME280;54227;45.198;5.732;2022-11-15T00:38:52;99043.38;;;23.71;40.63
67341;BME280;54227;45.198;5.732;2022-11-15T00:41:17;99048.59;;;23.69;40.53
67341;BME280;54227;45.198;5.732;2022-11-15T00:43:43;99037.81;;;23.67;40.55
67341;BME280;54227;45.198;5.732;2022-11-15T00:46:09;99036.63;;;23.68;40.53
67341;BME280;54227;45.198;5.732;2022-11-15T00:48:35;99033.03;;;23.68;40.61
67341;BME280;54227;45.198;5.732;2022-11-15T00:51:01;99027.88;;;23.66;40.60
67341;BME280;54227;45.198;5.732;2022-11-15T00:53:26;99029.06;;;23.65;40.61
67341;BME280;54227;45.198;5.732;2022-11-15T00:55:52;99037.03;;;23.67;40.71
67341;BME280;54227;45.198;5.732;2022-11-15T00:58:18;99032.66;;;23.66;40.70
67341;BME280;54227;45.198;5.732;2022-11-15T01:00:43;99035.44;;;23.66;40.59
67341;BME280;54227;45.198;5.732;2022-11-15T01:03:09;99035.03;;;23.67;40.53
67341;BME280;54227;45.198;5.732;2022-11-15T01:05:37;99034.25;;;23.67;40.78
67341;BME280;54227;45.198;5.732;2022-11-15T01:08:02;99037.81;;;23.67;40.77
67341;BME280;54227;45.198;5.732;2022-11-15T01:10:28;99032.66;;;23.66;40.78
67341;BME280;54227;45.198;5.732;2022-11-15T01:12:53;99038.25;;;23.66;40.75
67341;BME280;54227;45.198;5.732;2022-11-15T01:15:19;99035.81;;;23.64;40.77
67341;BME280;54227;45.198;5.732;2022-11-15T01:17:44;99035.03;;;23.64;40.74
67341;BME280;54227;45.198;5.732;2022-11-15T01:20:10;99041.41;;;23.68;40.65
67341;BME280;54227;45.198;5.732;2022-11-15T01:22:35;99040.22;;;23.69;40.57
67341;BME280;54227;45.198;5.732;2022-11-15T01:25:00;99038.59;;;23.71;40.65
67341;BME280;54227;45.198;5.732;2022-11-15T01:27:26;99036.59;;;23.72;40.85
67341;BME280;54227;45.198;5.732;2022-11-15T01:29:51;99037.81;;;23.71;40.97
67341;BME280;54227;45.198;5.732;2022-11-15T01:32:17;99032.22;;;23.71;40.73
67341;BME280;54227;45.198;5.732;2022-11-15T01:34:42;99031.84;;;23.69;40.62
67341;BME280;54227;45.198;5.732;2022-11-15T01:37:08;99028.25;;;23.68;40.83
67341;BME280;54227;45.198;5.732;2022-11-15T01:39:33;99028.25;;;23.68;40.85
67341;BME280;54227;45.198;5.732;2022-11-15T01:41:59;99027.47;;;23.68;40.79
67341;BME280;54227;45.198;5.732;2022-11-15T01:44:39;99023.06;;;23.67;40.89
67341;BME280;54227;45.198;5.732;2022-11-15T01:47:10;99030.25;;;23.68;40.73
67341;BME280;54227;45.198;5.732;2022-11-15T01:49:39;99016.69;;;23.66;40.78
67341;BME280;54227;45.198;5.732;2022-11-15T01:52:11;99014.69;;;23.67;40.64
67341;BME280;54227;45.198;5.732;2022-11-15T01:54:38;99010.31;;;23.66;40.84
67341;BME280;54227;45.198;5.732;2022-11-15T01:57:08;99003.13;;;23.65;40.98
67341;BME280;54227;45.198;5.732;2022-11-15T01:59:36;99010.31;;;23.66;40.88
67341;BME280;54227;45.198;5.732;2022-11-15T02:02:02;99001.94;;;23.66;40.88
67341;BME280;54227;45.198;5.732;2022-11-15T02:04:31;98991.94;;;23.65;40.97
67341;BME280;54227;45.198;5.732;2022-11-15T02:06:56;98989.56;;;23.67;40.72
67341;BME280;54227;45.198;5.732;2022-11-15T02:09:22;98992.78;;;23.65;40.89
67341;BME280;54227;45.198;5.732;2022-11-15T02:11:49;98985.97;;;23.66;40.77
67341;BME280;54227;45.198;5.732;2022-11-15T02:14:18;98987.19;;;23.65;40.79
67341;BME280;54227;45.198;5.732;2022-11-15T02:30:41;98971.22;;;23.62;41.03
67341;BME280;54227;45.198;5.732;2022-11-15T02:33:18;98970.44;;;23.61;40.97
67341;BME280;54227;45.198;5.732;2022-11-15T02:35:59;98970.44;;;23.61;40.93
67341;BME280;54227;45.198;5.732;2022-11-15T02:40:57;98966.06;;;23.60;40.92
67341;BME280;54227;45.198;5.732;2022-11-15T02:43:51;98960.84;;;23.63;41.03
67341;BME280;54227;45.198;5.732;2022-11-15T02:46:25;98956.06;;;23.63;40.96
67341;BME280;54227;45.198;5.732;2022-11-15T02:49:13;98947.31;;;23.61;41.12
67341;BME280;54227;45.198;5.732;2022-11-15T02:51:40;98942.91;;;23.60;41.11
67341;BME280;54227;45.198;5.732;2022-11-15T02:54:13;98948.47;;;23.60;41.07
67341;BME280;54227;45.198;5.732;2022-11-15T02:56:40;98949.28;;;23.57;41.04
67341;BME280;54227;45.198;5.732;2022-11-15T03:07:05;98938.50;;;23.59;41.07
67341;BME280;54227;45.198;5.732;2022-11-15T03:09:46;98939.31;;;23.59;41.02
67341;BME280;54227;45.198;5.732;2022-11-15T03:12:44;98940.09;;;23.56;41.13
67341;BME280;54227;45.198;5.732;2022-11-15T03:15:21;98924.97;;;23.61;41.13
67341;BME280;54227;45.198;5.732;2022-11-15T03:17:53;98931.34;;;23.65;40.98
67341;BME280;54227;45.198;5.732;2022-11-15T03:20:20;98934.94;;;23.66;40.95
67341;BME280;54227;45.198;5.732;2022-11-15T03:22:47;98939.72;;;23.65;41.06
67341;BME280;54227;45.198;5.732;2022-11-15T03:25:17;98950.47;;;23.67;40.93
67341;BME280;54227;45.198;5.732;2022-11-15T03:27:48;98946.09;;;23.66;40.76
67341;BME280;54227;45.198;5.732;2022-11-15T03:30:15;98956.06;;;23.67;40.93
67341;BME280;54227;45.198;5.732;2022-11-15T03:32:47;98956.06;;;23.67;40.85
67341;BME280;54227;45.198;5.732;2022-11-15T03:35:17;98947.69;;;23.67;40.94
67341;BME280;54227;45.198;5.732;2022-11-15T03:38:15;98944.91;;;23.67;40.87
67341;BME280;54227;45.198;5.732;2022-11-15T03:40:45;98937.72;;;23.66;41.06
67341;BME280;54227;45.198;5.732;2022-11-15T03:43:20;98933.72;;;23.67;40.83
67341;BME280;54227;45.198;5.732;2022-11-15T03:45:58;98921.75;;;23.63;41.12
67341;BME280;54227;45.198;5.732;2022-11-15T03:48:30;98918.56;;;23.64;41.02
67341;BME280;54227;45.198;5.732;2022-11-15T03:50:59;98908.59;;;23.63;40.82
67341;BME280;54227;45.198;5.732;2022-11-15T03:53:24;98907.38;;;23.64;41.08
67341;BME280;54227;45.198;5.732;2022-11-15T03:55:50;98906.59;;;23.64;41.02
67341;BME280;54227;45.198;5.732;2022-11-15T03:58:15;98908.59;;;23.63;41.11
67341;BME280;54227;45.198;5.732;2022-11-15T04:00:41;98907.38;;;23.64;40.96
67341;BME280;54227;45.198;5.732;2022-11-15T04:03:06;98909.38;;;23.64;41.00
67341;BME280;54227;45.198;5.732;2022-11-15T04:05:33;98906.59;;;23.64;41.10
67341;BME280;54227;45.198;5.732;2022-11-15T04:07:58;98903.81;;;23.64;40.97
67341;BME280;54227;45.198;5.732;2022-11-15T04:10:24;98891.06;;;23.63;41.16
67341;BME280;54227;45.198;5.732;2022-11-15T04:12:49;98886.66;;;23.61;40.95
67341;BME280;54227;45.198;5.732;2022-11-15T04:15:17;98889.47;;;23.61;41.26
67341;BME280;54227;45.198;5.732;2022-11-15T04:17:48;98896.25;;;23.60;41.07
67341;BME280;54227;45.198;5.732;2022-11-15T04:20:28;98882.28;;;23.60;41.09
67341;BME280;54227;45.198;5.732;2022-11-15T04:23:19;98871.50;;;23.59;41.17
67341;BME280;54227;45.198;5.732;2022-11-15T04:26:06;98869.50;;;23.59;41.06
67341;BME280;54227;45.198;5.732;2022-11-15T04:28:33;98867.94;;;23.58;41.17
67341;BME280;54227;45.198;5.732;2022-11-15T04:30:59;98869.09;;;23.57;41.02
67341;BME280;54227;45.198;5.732;2022-11-15T04:33:24;98860.72;;;23.57;41.24
67341;BME280;54227;45.198;5.732;2022-11-15T04:35:50;98859.94;;;23.57;41.29
67341;BME280;54227;45.198;5.732;2022-11-15T04:38:36;98859.94;;;23.57;41.28
67341;BME280;54227;45.198;5.732;2022-11-15T04:41:02;98856.75;;;23.55;41.34
67341;BME280;54227;45.198;5.732;2022-11-15T04:43:28;98855.56;;;23.56;41.29
67341;BME280;54227;45.198;5.732;2022-11-15T04:45:57;98859.56;;;23.55;41.30
67341;BME280;54227;45.198;5.732;2022-11-15T04:48:22;98863.94;;;23.56;41.29
67341;BME280;54227;45.198;5.732;2022-11-15T04:50:48;98855.56;;;23.56;41.36
67341;BME280;54227;45.198;5.732;2022-11-15T04:53:14;98851.56;;;23.57;41.26
67341;BME280;54227;45.198;5.732;2022-11-15T04:55:39;98846.78;;;23.57;41.12
67341;BME280;54227;45.198;5.732;2022-11-15T04:58:05;98837.22;;;23.58;41.14
67341;BME280;54227;45.198;5.732;2022-11-15T05:00:30;98842.00;;;23.61;41.15
67341;BME280;54227;45.198;5.732;2022-11-15T05:02:56;98828.84;;;23.62;40.90
67341;BME280;54227;45.198;5.732;2022-11-15T05:05:41;98828.41;;;23.64;41.00
67341;BME280;54227;45.198;5.732;2022-11-15T05:08:07;98831.22;;;23.64;41.03
67341;BME280;54227;45.198;5.732;2022-11-15T05:10:32;98815.28;;;23.60;41.13
67341;BME280;54227;45.198;5.732;2022-11-15T05:12:58;98818.84;;;23.65;41.02
67341;BME280;54227;45.198;5.732;2022-11-15T05:15:23;98822.84;;;23.64;40.98
67341;BME280;54227;45.198;5.732;2022-11-15T05:17:48;98814.47;;;23.64;40.96
67341;BME280;54227;45.198;5.732;2022-11-15T05:20:14;98806.88;;;23.64;40.81
67341;BME280;54227;45.198;5.732;2022-11-15T05:22:39;98802.91;;;23.61;41.08
67341;BME280;54227;45.198;5.732;2022-11-15T05:25:05;98802.91;;;23.61;41.00
67341;BME280;54227;45.198;5.732;2022-11-15T05:27:31;98804.50;;;23.63;41.22
67341;BME280;54227;45.198;5.732;2022-11-15T05:29:57;98789.34;;;23.60;41.18
67341;BME280;54227;45.198;5.732;2022-11-15T05:32:23;98785.75;;;23.59;40.92
67341;BME280;54227;45.198;5.732;2022-11-15T05:34:48;98784.59;;;23.60;40.95
67341;BME280;54227;45.198;5.732;2022-11-15T05:37:14;98783.38;;;23.58;41.20
67341;BME280;54227;45.198;5.732;2022-11-15T05:39:40;98790.56;;;23.59;41.07
67341;BME280;54227;45.198;5.732;2022-11-15T05:42:09;98786.56;;;23.60;41.10
67341;BME280;54227;45.198;5.732;2022-11-15T05:44:36;98784.19;;;23.58;41.03
67341;BME280;54227;45.198;5.732;2022-11-15T05:47:05;98784.19;;;23.58;41.18
67341;BME280;54227;45.198;5.732;2022-11-15T05:49:35;98784.59;;;23.60;41.04
67341;BME280;54227;45.198;5.732;2022-11-15T05:52:04;98786.16;;;23.61;41.14
67341;BME280;54227;45.198;5.732;2022-11-15T05:54:31;98790.53;;;23.63;40.97
67341;BME280;54227;45.198;5.732;2022-11-15T05:56:57;98766.63;;;23.65;41.03
67341;BME280;54227;45.198;5.732;2022-11-15T05:59:24;98770.59;;;23.64;40.99
67341;BME280;54227;45.198;5.732;2022-11-15T06:01:49;98790.91;;;23.65;40.89
67341;BME280;54227;45.198;5.732;2022-11-15T06:04:15;98778.56;;;23.66;41.10
67341;BME280;54227;45.198;5.732;2022-11-15T06:06:40;98782.94;;;23.67;40.85
67341;BME280;54227;45.198;5.732;2022-11-15T06:09:05;98777.38;;;23.67;41.03
67341;BME280;54227;45.198;5.732;2022-11-15T06:11:31;98788.91;;;23.69;41.03
67341;BME280;54227;45.198;5.732;2022-11-15T06:13:56;98784.53;;;23.68;41.02
67341;BME280;54227;45.198;5.732;2022-11-15T06:16:22;98787.69;;;23.70;40.85
67341;BME280;54227;45.198;5.732;2022-11-15T06:18:47;98782.13;;;23.70;40.72
67341;BME280;54227;45.198;5.732;2022-11-15T06:21:12;98782.13;;;23.70;40.93
67341;BME280;54227;45.198;5.732;2022-11-15T06:23:38;98790.88;;;23.72;40.77
67341;BME280;54227;45.198;5.732;2022-11-15T06:26:03;98783.69;;;23.71;40.74
67341;BME280;54227;45.198;5.732;2022-11-15T06:28:32;98778.13;;;23.71;40.89
67341;BME280;54227;45.198;5.732;2022-11-15T06:31:09;98781.31;;;23.69;40.92
67341;BME280;54227;45.198;5.732;2022-11-15T06:33:36;98780.53;;;23.72;40.85
67341;BME280;54227;45.198;5.732;2022-11-15T06:36:03;98774.13;;;23.72;41.00
67341;BME280;54227;45.198;5.732;2022-11-15T06:38:28;98783.31;;;23.72;41.32
67341;BME280;54227;45.198;5.732;2022-11-15T06:40:54;98774.91;;;23.76;41.31
67341;BME280;54227;45.198;5.732;2022-11-15T06:43:19;98775.69;;;23.80;41.64
67341;BME280;54227;45.198;5.732;2022-11-15T06:45:45;98789.22;;;23.81;41.40
67341;BME280;54227;45.198;5.732;2022-11-15T06:48:10;98791.97;;;23.85;41.21
67341;BME280;54227;45.198;5.732;2022-11-15T06:50:35;98782.81;;;23.84;41.15
67341;BME280;54227;45.198;5.732;2022-11-15T06:53:02;98788.38;;;23.88;41.33
67341;BME280;54227;45.198;5.732;2022-11-15T06:55:28;98795.16;;;23.87;41.07
67341;BME280;54227;45.198;5.732;2022-11-15T06:57:54;98797.97;;;23.87;41.15
67341;BME280;54227;45.198;5.732;2022-11-15T07:00:20;98798.75;;;23.87;41.09
67341;BME280;54227;45.198;5.732;2022-11-15T07:02:47;98789.97;;;23.89;41.12
67341;BME280;54227;45.198;5.732;2022-11-15T07:05:13;98780.38;;;23.90;41.07
67341;BME280;54227;45.198;5.732;2022-11-15T07:07:39;98788.75;;;23.94;40.84
67341;BME280;54227;45.198;5.732;2022-11-15T07:10:06;98785.13;;;23.93;40.86
67341;BME280;54227;45.198;5.732;2022-11-15T07:12:31;98794.69;;;23.96;40.96
67341;BME280;54227;45.198;5.732;2022-11-15T07:14:57;98792.31;;;23.94;40.99
67341;BME280;54227;45.198;5.732;2022-11-15T07:17:22;98791.53;;;23.94;40.93
67341;BME280;54227;45.198;5.732;2022-11-15T07:19:48;98782.72;;;23.95;40.70
67341;BME280;54227;45.198;5.732;2022-11-15T07:22:13;98789.53;;;23.94;40.78
67341;BME280;54227;45.198;5.732;2022-11-15T07:24:39;98783.16;;;23.94;40.77
67341;BME280;54227;45.198;5.732;2022-11-15T07:27:04;98791.13;;;23.95;40.83
67341;BME280;54227;45.198;5.732;2022-11-15T07:29:30;98775.56;;;23.94;40.86
67341;BME280;54227;45.198;5.732;2022-11-15T07:31:55;98775.16;;;23.92;40.78
67341;BME280;54227;45.198;5.732;2022-11-15T07:34:20;98770.78;;;23.91;40.67
67341;BME280;54227;45.198;5.732;2022-11-15T07:36:46;98780.38;;;23.90;40.72
67341;BME280;54227;45.198;5.732;2022-11-15T07:39:11;98780.78;;;23.88;41.15
67341;BME280;54227;45.198;5.732;2022-11-15T07:41:37;98781.59;;;23.89;41.61
67341;BME280;54227;45.198;5.732;2022-11-15T07:44:04;98782.78;;;23.88;41.65
67341;BME280;54227;45.198;5.732;2022-11-15T07:46:29;98772.81;;;23.87;42.00
67341;BME280;54227;45.198;5.732;2022-11-15T07:48:55;98775.28;;;23.78;41.44
67341;BME280;54227;45.198;5.732;2022-11-15T07:51:21;98772.59;;;23.60;41.61
67341;BME280;54227;45.198;5.732;2022-11-15T07:53:46;98772.66;;;23.49;41.93
67341;BME280;54227;45.198;5.732;2022-11-15T07:56:12;98774.63;;;23.52;41.85
67341;BME280;54227;45.198;5.732;2022-11-15T07:58:37;98785.81;;;23.52;41.81
67341;BME280;54227;45.198;5.732;2022-11-15T08:01:08;98778.31;;;23.35;41.67
67341;BME280;54227;45.198;5.732;2022-11-15T08:03:34;98775.97;;;23.30;41.96
67341;BME280;54227;45.198;5.732;2022-11-15T08:06:00;98775.56;;;23.28;41.94
67341;BME280;54227;45.198;5.732;2022-11-15T08:08:25;98780.75;;;23.29;41.92
67341;BME280;54227;45.198;5.732;2022-11-15T08:10:51;98771.56;;;23.32;41.85
67341;BME280;54227;45.198;5.732;2022-11-15T08:13:16;98770.34;;;23.37;41.97
67341;BME280;54227;45.198;5.732;2022-11-15T08:15:42;98770.31;;;23.41;42.32
67341;BME280;54227;45.198;5.732;2022-11-15T08:18:13;98754.34;;;23.45;41.95
67341;BME280;54227;45.198;5.732;2022-11-15T08:20:40;98765.47;;;23.52;41.90
67341;BME280;54227;45.198;5.732;2022-11-15T08:23:06;98778.19;;;23.56;42.18
67341;BME280;54227;45.198;5.732;2022-11-15T08:25:34;98758.63;;;23.60;42.19
67341;BME280;54227;45.198;5.732;2022-11-15T08:28:03;98758.63;;;23.64;42.30
67341;BME280;54227;45.198;5.732;2022-11-15T08:30:30;98752.59;;;23.69;42.00
67341;BME280;54227;45.198;5.732;2022-11-15T08:32:57;98744.59;;;23.71;42.37
67341;BME280;54227;45.198;5.732;2022-11-15T08:35:23;98756.97;;;23.73;42.13
67341;BME280;54227;45.198;5.732;2022-11-15T08:37:49;98744.19;;;23.76;42.11
67341;BME280;54227;45.198;5.732;2022-11-15T08:40:17;98740.97;;;23.77;42.12
67341;BME280;54227;45.198;5.732;2022-11-15T08:42:46;98738.97;;;23.81;42.22
67341;BME280;54227;45.198;5.732;2022-11-15T08:45:12;98736.94;;;23.82;42.10
67341;BME280;54227;45.198;5.732;2022-11-15T08:47:37;98747.28;;;23.85;42.06
67341;BME280;54227;45.198;5.732;2022-11-15T08:50:03;98742.91;;;23.84;42.10
67341;BME280;54227;45.198;5.732;2022-11-15T08:52:28;98736.09;;;23.88;42.06
67341;BME280;54227;45.198;5.732;2022-11-15T08:54:54;98728.50;;;23.89;42.05
67341;BME280;54227;45.198;5.732;2022-11-15T08:57:19;98726.09;;;23.91;42.01
67341;BME280;54227;45.198;5.732;2022-11-15T08:59:44;98728.47;;;23.93;41.87
67341;BME280;54227;45.198;5.732;2022-11-15T09:02:12;98724.50;;;23.90;41.96
67341;BME280;54227;45.198;5.732;2022-11-15T09:04:40;98722.09;;;23.92;41.84
67341;BME280;54227;45.198;5.732;2022-11-15T09:07:07;98719.69;;;23.94;41.84
67341;BME280;54227;45.198;5.732;2022-11-15T09:09:32;98722.06;;;23.96;41.92
67341;BME280;54227;45.198;5.732;2022-11-15T09:11:58;98720.06;;;23.96;41.96
67341;BME280;54227;45.198;5.732;2022-11-15T09:14:23;98716.06;;;23.97;41.69
67341;BME280;54227;45.198;5.732;2022-11-15T09:16:49;98712.84;;;23.99;41.96
67341;BME280;54227;45.198;5.732;2022-11-15T09:19:14;98710.84;;;23.99;42.00
67341;BME280;54227;45.198;5.732;2022-11-15T09:21:40;98710.84;;;23.99;41.68
67341;BME280;54227;45.198;5.732;2022-11-15T09:24:05;98718.03;;;24.00;41.79
67341;BME280;54227;45.198;5.732;2022-11-15T09:26:31;98702.09;;;24.01;41.81
67341;BME280;54227;45.198;5.732;2022-11-15T09:28:56;98700.06;;;24.01;41.74
67341;BME280;54227;45.198;5.732;2022-11-15T09:31:22;98693.28;;;24.02;41.73
67341;BME280;54227;45.198;5.732;2022-11-15T09:33:47;98698.88;;;24.02;41.79
67341;BME280;54227;45.198;5.732;2022-11-15T09:36:12;98677.31;;;24.03;42.03
67341;BME280;54227;45.198;5.732;2022-11-15T09:38:38;98690.84;;;24.04;41.73
67341;BME280;54227;45.198;5.732;2022-11-15T09:46:45;98685.56;;;24.13;42.16
67341;BME280;54227;45.198;5.732;2022-11-15T09:49:17;98682.38;;;24.15;41.72
67341;BME280;54227;45.198;5.732;2022-11-15T09:51:48;98679.97;;;24.13;41.82
67341;BME280;54227;45.198;5.732;2022-11-15T09:54:31;98687.53;;;24.16;42.01
67341;BME280;54227;45.198;5.732;2022-11-15T09:57:04;98670.38;;;24.14;41.95
67341;BME280;54227;45.198;5.732;2022-11-15T09:59:43;98687.97;;;24.15;41.85
67341;BME280;54227;45.198;5.732;2022-11-15T10:02:38;98677.59;;;24.15;41.85
67341;BME280;54227;45.198;5.732;2022-11-15T10:05:11;98669.56;;;24.17;42.03
67341;BME280;54227;45.198;5.732;2022-11-15T10:10:29;98673.94;;;24.19;42.01
67341;BME280;54227;45.198;5.732;2022-11-15T10:12:56;98653.19;;;24.20;41.79
67341;BME280;54227;45.198;5.732;2022-11-15T10:15:22;98649.59;;;24.19;42.10
67341;BME280;54227;45.198;5.732;2022-11-15T10:20:30;98652.38;;;24.19;42.04
67341;BME280;54227;45.198;5.732;2022-11-15T10:22:59;98646.00;;;24.19;41.84
67341;BME280;54227;45.198;5.732;2022-11-15T10:25:31;98639.19;;;24.20;41.82
67341;BME280;54227;45.198;5.732;2022-11-15T10:30:23;98630.81;;;24.20;41.89
67341;BME280;54227;45.198;5.732;2022-11-15T10:32:54;98622.81;;;24.22;41.91
67341;BME280;54227;45.198;5.732;2022-11-15T10:35:29;98619.63;;;24.20;41.90
67341;BME280;54227;45.198;5.732;2022-11-15T10:38:09;98604.09;;;24.19;42.04
67341;BME280;54227;45.198;5.732;2022-11-15T10:40:35;98598.50;;;24.19;42.07
67341;BME280;54227;45.198;5.732;2022-11-15T10:45:34;98588.53;;;24.17;41.90
67341;BME280;54227;45.198;5.732;2022-11-15T10:50:42;98595.72;;;24.19;42.24
67341;BME280;54227;45.198;5.732;2022-11-15T10:53:38;98588.47;;;24.21;41.94
67341;BME280;54227;45.198;5.732;2022-11-15T10:56:12;98604.44;;;24.24;41.87
67341;BME280;54227;45.198;5.732;2022-11-15T10:58:50;98601.63;;;24.24;42.15
67341;BME280;54227;45.198;5.732;2022-11-15T11:03:46;98598.84;;;24.24;42.12
67341;BME280;54227;45.198;5.732;2022-11-15T11:06:23;98585.28;;;24.23;42.18
67341;BME280;54227;45.198;5.732;2022-11-15T11:08:55;98588.44;;;24.25;42.29
67341;BME280;54227;45.198;5.732;2022-11-15T11:11:21;98575.69;;;24.24;42.22
67341;BME280;54227;45.198;5.732;2022-11-15T11:13:48;98568.56;;;24.19;42.09
67341;BME280;54227;45.198;5.732;2022-11-15T11:19:16;98547.84;;;24.16;42.11
67341;BME280;54227;45.198;5.732;2022-11-15T11:24:44;98558.63;;;24.14;42.19
67341;BME280;54227;45.198;5.732;2022-11-15T11:27:40;98551.44;;;24.13;42.45
67341;BME280;54227;45.198;5.732;2022-11-15T11:30:17;98526.31;;;24.13;42.24
67341;BME280;54227;45.198;5.732;2022-11-15T11:33:08;98546.66;;;24.14;42.22
67341;BME280;54227;45.198;5.732;2022-11-15T11:46:53;98507.59;;;24.10;42.27
67341;BME280;54227;45.198;5.732;2022-11-15T11:49:48;98481.69;;;24.06;42.22
67341;BME280;54227;45.198;5.732;2022-11-15T11:54:54;98472.09;;;24.07;42.29
67341;BME280;54227;45.198;5.732;2022-11-15T12:00:21;98477.69;;;24.07;42.06
67341;BME280;54227;45.198;5.732;2022-11-15T12:07:53;98468.16;;;24.05;42.39
67341;BME280;54227;45.198;5.732;2022-11-15T12:10:30;98454.97;;;24.05;42.68
67341;BME280;54227;45.198;5.732;2022-11-15T12:13:18;98446.25;;;24.03;43.12
67341;BME280;54227;45.198;5.732;2022-11-15T12:15:59;98447.78;;;24.08;43.07
67341;BME280;54227;45.198;5.732;2022-11-15T12:18:28;98427.38;;;24.11;43.13
67341;BME280;54227;45.198;5.732;2022-11-15T12:21:07;98435.31;;;24.12;43.32
67341;BME280;54227;45.198;5.732;2022-11-15T12:23:44;98426.25;;;24.05;42.93
67341;BME280;54227;45.198;5.732;2022-11-15T12:26:22;98431.34;;;23.83;43.10
67341;BME280;54227;45.198;5.732;2022-11-15T12:29:03;98426.03;;;23.61;43.78
67341;BME280;54227;45.198;5.732;2022-11-15T12:31:36;98428.03;;;23.61;43.79
67341;BME280;54227;45.198;5.732;2022-11-15T12:36:42;98421.94;;;23.70;43.65
67341;BME280;54227;45.198;5.732;2022-11-15T12:39:13;98409.47;;;23.78;44.12
67341;BME280;54227;45.198;5.732;2022-11-15T12:44:15;98405.25;;;23.93;43.81
67341;BME280;54227;45.198;5.732;2022-11-15T12:46:59;98395.97;;;24.03;43.81
67341;BME280;54227;45.198;5.732;2022-11-15T13:02:22;98383.94;;;24.33;44.14
67341;BME280;54227;45.198;5.732;2022-11-15T13:04:49;98389.06;;;24.38;44.04
67341;BME280;54227;45.198;5.732;2022-11-15T13:10:31;98357.41;;;24.45;44.42
67341;BME280;54227;45.198;5.732;2022-11-15T13:13:07;98358.91;;;24.50;44.39
67341;BME280;54227;45.198;5.732;2022-11-15T13:15:38;98357.66;;;24.54;44.26
67341;BME280;54227;45.198;5.732;2022-11-15T13:18:30;98345.59;;;24.57;44.51
67341;BME280;54227;45.198;5.732;2022-11-15T13:20:56;98344.28;;;24.65;44.58
67341;BME280;54227;45.198;5.732;2022-11-15T13:23:22;98323.84;;;24.68;44.41
67341;BME280;54227;45.198;5.732;2022-11-15T13:28:48;98314.44;;;24.79;44.94
67341;BME280;54227;45.198;5.732;2022-11-15T13:31:27;98316.41;;;24.82;44.73
67341;BME280;54227;45.198;5.732;2022-11-15T13:33:59;98309.59;;;24.83;44.92
67341;BME280;54227;45.198;5.732;2022-11-15T13:36:32;98305.56;;;24.84;44.76
67341;BME280;54227;45.198;5.732;2022-11-15T13:39:25;98305.53;;;24.87;44.84
67341;BME280;54227;45.198;5.732;2022-11-15T13:41:51;98305.44;;;24.91;44.84
67341;BME280;54227;45.198;5.732;2022-11-15T13:44:23;98294.59;;;24.93;45.04
67341;BME280;54227;45.198;5.732;2022-11-15T13:47:00;98281.44;;;24.93;45.15
67341;BME280;54227;45.198;5.732;2022-11-15T13:49:34;98287.81;;;24.94;45.36
67341;BME280;54227;45.198;5.732;2022-11-15T13:52:05;98268.28;;;24.90;46.02
67341;BME280;54227;45.198;5.732;2022-11-15T13:54:42;98275.28;;;24.79;45.68
67341;BME280;54227;45.198;5.732;2022-11-15T14:00:32;98269.84;;;24.71;46.23
67341;BME280;54227;45.198;5.732;2022-11-15T14:02:57;98268.66;;;24.73;46.00
67341;BME280;54227;45.198;5.732;2022-11-15T14:05:29;98258.31;;;24.69;46.06
67341;BME280;54227;45.198;5.732;2022-11-15T14:10:33;98242.75;;;24.68;45.67
67341;BME280;54227;45.198;5.732;2022-11-15T14:12:59;98244.31;;;24.69;45.60
67341;BME280;54227;45.198;5.732;2022-11-15T14:17:51;98251.50;;;24.70;45.91
67341;BME280;54227;45.198;5.732;2022-11-15T14:20:27;98238.72;;;24.69;45.97
67341;BME280;54227;45.198;5.732;2022-11-15T14:22:57;98240.75;;;24.69;45.75
67341;BME280;54227;45.198;5.732;2022-11-15T14:25:29;98239.16;;;24.68;45.68
67341;BME280;54227;45.198;5.732;2022-11-15T14:30:34;98234.34;;;24.68;45.54
67341;BME280;54227;45.198;5.732;2022-11-15T14:32:59;98230.78;;;24.68;45.79
67341;BME280;54227;45.198;5.732;2022-11-15T14:35:25;98229.19;;;24.67;45.67
67341;BME280;54227;45.198;5.732;2022-11-15T14:37:54;98230.84;;;24.64;45.52
67341;BME280;54227;45.198;5.732;2022-11-15T14:40:22;98233.72;;;24.61;45.42
67341;BME280;54227;45.198;5.732;2022-11-15T14:42:48;98225.31;;;24.61;45.70
67341;BME280;54227;45.198;5.732;2022-11-15T14:45:19;98226.13;;;24.61;45.49
67341;BME280;54227;45.198;5.732;2022-11-15T14:47:45;98228.84;;;24.65;45.72
67341;BME280;54227;45.198;5.732;2022-11-15T14:50:19;98238.03;;;24.65;45.55
67341;BME280;54227;45.198;5.732;2022-11-15T14:52:45;98233.22;;;24.66;45.65
67341;BME280;54227;45.198;5.732;2022-11-15T14:55:27;98214.00;;;24.68;45.54
67341;BME280;54227;45.198;5.732;2022-11-15T14:57:54;98225.97;;;24.68;45.35